createdAt,value
2022-09-12T00:01:19.386Z,13.98
2022-09-12T00:03:46.295Z,14.00
2022-09-12T00:06:22.858Z,14.00
2022-09-12T00:08:53.220Z,13.94
2022-09-12T00:11:22.209Z,13.95
2022-09-12T00:13:48.936Z,13.92
2022-09-12T00:16:21.554Z,13.87
2022-09-12T00:18:50.515Z,13.92
2022-09-12T00:21:18.770Z,13.94
2022-09-12T00:23:48.145Z,13.94
2022-09-12T00:26:15.110Z,13.87
2022-09-12T00:28:47.404Z,13.71
2022-09-12T00:31:19.287Z,13.67
2022-09-12T00:33:45.900Z,13.72
2022-09-12T00:36:18.929Z,13.61
2022-09-12T00:38:48.497Z,13.61
2022-09-12T00:41:24.219Z,13.57
2022-09-12T00:43:56.981Z,13.59
2022-09-12T00:46:36.365Z,13.63
2022-09-12T00:49:15.996Z,13.67
2022-09-12T00:51:48.730Z,13.68
2022-09-12T00:54:23.628Z,13.53
2022-09-12T00:56:55.002Z,13.51
2022-09-12T00:59:27.603Z,13.51
2022-09-12T01:01:57.081Z,13.53
2022-09-12T01:04:30.846Z,13.44
2022-09-12T01:06:59.997Z,13.48
2022-09-12T01:09:26.714Z,13.45
2022-09-12T01:11:53.497Z,13.42
2022-09-12T01:14:22.534Z,13.42
2022-09-12T01:16:51.787Z,13.39
2022-09-12T01:19:48.657Z,13.38
2022-09-12T01:22:47.573Z,13.38
2022-09-12T01:25:51.588Z,13.33
2022-09-12T01:28:44.720Z,13.32
2022-09-12T01:31:34.114Z,13.33
2022-09-12T01:34:33.222Z,13.29
2022-09-12T01:37:17.513Z,13.24
2022-09-12T01:39:47.027Z,13.22
2022-09-12T01:42:33.570Z,13.23
2022-09-12T01:45:16.421Z,13.16
2022-09-12T01:47:58.790Z,13.14
2022-09-12T01:50:30.068Z,13.09
2022-09-12T01:53:07.023Z,13.11
2022-09-12T01:55:43.185Z,13.07
2022-09-12T01:58:14.583Z,13.03
2022-09-12T02:00:53.057Z,13.06
2022-09-12T02:03:26.755Z,13.07
2022-09-12T02:06:01.022Z,12.92
2022-09-12T02:08:40.691Z,12.99
2022-09-12T02:11:11.863Z,12.90
2022-09-12T02:13:59.011Z,12.98
2022-09-12T02:16:40.254Z,12.76
2022-09-12T02:19:18.023Z,12.86
2022-09-12T02:21:55.174Z,12.86
2022-09-12T02:24:24.877Z,12.84
2022-09-12T02:26:56.681Z,12.79
2022-09-12T02:29:25.578Z,12.75
2022-09-12T02:32:01.738Z,12.71
2022-09-12T02:34:53.530Z,12.72
2022-09-12T02:37:41.086Z,12.76
2022-09-12T02:40:08.921Z,12.58
2022-09-12T02:42:36.977Z,12.61
2022-09-12T02:45:04.056Z,12.47
2022-09-12T02:47:58.558Z,12.53
2022-09-12T02:50:27.927Z,12.54
2022-09-12T02:53:03.780Z,12.50
2022-09-12T02:55:34.745Z,12.42
2022-09-12T02:58:07.698Z,12.50
2022-09-12T03:00:37.270Z,12.51
2022-09-12T03:03:24.100Z,12.45
2022-09-12T03:05:56.950Z,12.47
2022-09-12T03:09:00.283Z,12.35
2022-09-12T03:11:47.826Z,12.49
2022-09-12T03:14:42.452Z,12.42
2022-09-12T03:17:24.421Z,12.43
2022-09-12T03:19:50.817Z,12.42
2022-09-12T03:22:32.649Z,12.40
2022-09-12T03:25:34.610Z,12.30
2022-09-12T03:28:09.113Z,12.30
2022-09-12T03:30:40.629Z,12.25
2022-09-12T03:33:20.853Z,12.24
2022-09-12T03:35:50.857Z,12.24
2022-09-12T03:38:17.610Z,12.23
2022-09-12T03:40:47.215Z,12.17
2022-09-12T03:43:15.867Z,12.10
2022-09-12T03:45:42.426Z,12.14
2022-09-12T03:48:14.410Z,12.16
2022-09-12T03:50:42.939Z,12.22
2022-09-12T03:53:15.285Z,12.23
2022-09-12T03:55:50.526Z,12.17
2022-09-12T03:58:17.025Z,12.16
2022-09-12T04:00:44.946Z,12.03
2022-09-12T04:03:13.787Z,11.98
2022-09-12T04:05:40.361Z,11.93
2022-09-12T04:08:09.278Z,11.99
2022-09-12T04:10:35.725Z,11.98
2022-09-12T04:13:06.554Z,11.98
2022-09-12T04:15:33.038Z,11.97
2022-09-12T04:18:03.642Z,11.89
2022-09-12T04:20:32.107Z,11.95
2022-09-12T04:22:58.555Z,11.94
2022-09-12T04:25:25.096Z,11.90
2022-09-12T04:27:51.589Z,11.93
2022-09-12T04:30:18.218Z,11.88
2022-09-12T04:32:44.672Z,11.92
2022-09-12T04:35:14.002Z,11.90
2022-09-12T04:37:40.470Z,11.92
2022-09-12T04:40:09.792Z,11.96
2022-09-12T04:42:41.195Z,11.97
2022-09-12T04:45:10.183Z,11.97
2022-09-12T04:47:38.970Z,12.04
2022-09-12T04:50:05.890Z,12.22
2022-09-12T04:52:34.721Z,12.33
2022-09-12T04:55:01.171Z,12.50
2022-09-12T04:57:29.955Z,12.61
2022-09-12T04:59:56.402Z,12.57
2022-09-12T05:02:25.333Z,12.72
2022-09-12T05:04:52.581Z,12.84
2022-09-12T05:07:19.432Z,12.91
2022-09-12T05:09:50.332Z,12.92
2022-09-12T05:12:16.817Z,12.87
2022-09-12T05:14:45.339Z,13.05
2022-09-12T05:17:11.846Z,13.17
2022-09-12T05:19:38.586Z,13.41
2022-09-12T05:22:06.599Z,13.27
2022-09-12T05:24:39.399Z,13.52
2022-09-12T05:27:05.851Z,13.67
2022-09-12T05:29:34.833Z,13.70
2022-09-12T05:32:01.990Z,13.72
2022-09-12T05:34:28.493Z,13.75
2022-09-12T05:36:54.950Z,13.86
2022-09-12T05:39:21.445Z,13.92
2022-09-12T05:41:52.786Z,14.04
2022-09-12T05:44:19.962Z,14.04
2022-09-12T05:46:51.204Z,14.17
2022-09-12T05:49:21.397Z,14.25
2022-09-12T05:51:52.914Z,14.37
2022-09-12T05:54:21.159Z,14.37
2022-09-12T05:56:48.794Z,14.45
2022-09-12T05:59:23.942Z,14.38
2022-09-12T06:01:52.544Z,14.06
2022-09-12T06:04:21.456Z,14.34
2022-09-12T06:06:48.673Z,14.32
2022-09-12T06:09:18.765Z,14.49
2022-09-12T06:11:46.427Z,14.54
2022-09-12T06:14:16.645Z,14.19
2022-09-12T06:16:43.333Z,14.25
2022-09-12T06:19:20.035Z,14.22
2022-09-12T06:21:49.350Z,14.29
2022-09-12T06:24:17.537Z,14.62
2022-09-12T06:26:44.355Z,14.62
2022-09-12T06:29:19.229Z,14.96
2022-09-12T06:31:48.263Z,15.14
2022-09-12T06:34:16.156Z,15.27
2022-09-12T06:36:45.160Z,15.39
2022-09-12T06:39:14.225Z,15.34
2022-09-12T06:41:44.405Z,14.99
2022-09-12T06:44:15.893Z,15.36
2022-09-12T06:46:42.539Z,15.50
2022-09-12T06:49:09.016Z,15.58
2022-09-12T06:51:38.394Z,15.45
2022-09-12T06:54:05.352Z,15.72
2022-09-12T06:56:32.161Z,15.86
2022-09-12T06:58:59.593Z,16.09
2022-09-12T07:01:31.364Z,15.99
2022-09-12T07:04:03.017Z,16.33
2022-09-12T07:06:34.951Z,16.31
2022-09-12T07:09:04.121Z,15.74
2022-09-12T07:11:35.336Z,15.92
2022-09-12T07:14:06.585Z,16.17
2022-09-12T07:16:35.455Z,16.21
2022-09-12T07:19:03.991Z,16.21
2022-09-12T07:21:31.288Z,16.48
2022-09-12T07:23:58.407Z,16.38
2022-09-12T07:26:29.068Z,16.66
2022-09-12T07:29:12.756Z,16.58
2022-09-12T07:31:44.955Z,16.74
2022-09-12T07:34:17.379Z,16.48
2022-09-12T07:36:46.345Z,16.74
2022-09-12T07:39:15.285Z,16.74
2022-09-12T07:41:44.410Z,17.12
2022-09-12T07:44:10.905Z,17.95
2022-09-12T07:46:38.292Z,19.19
2022-09-12T07:49:04.833Z,19.99
2022-09-12T07:51:31.878Z,20.01
2022-09-12T07:53:58.678Z,20.75
2022-09-12T07:56:30.105Z,20.12
2022-09-12T07:59:00.407Z,21.27
2022-09-12T08:01:28.351Z,25.22
2022-09-12T08:04:01.659Z,26.24
2022-09-12T08:06:32.011Z,30.25
2022-09-12T08:08:59.734Z,32.12
2022-09-12T08:11:28.225Z,32.84
2022-09-12T08:13:58.157Z,34.78
2022-09-12T08:16:27.987Z,35.45
2022-09-12T08:18:54.618Z,36.13
2022-09-12T08:21:32.724Z,36.18
2022-09-12T08:24:02.101Z,35.83
2022-09-12T08:26:28.942Z,37.21
2022-09-12T08:28:55.708Z,37.30
2022-09-12T08:31:26.714Z,37.42
2022-09-12T08:33:56.321Z,37.72
2022-09-12T08:36:27.751Z,38.31
2022-09-12T08:38:59.977Z,38.98
2022-09-12T08:41:30.281Z,39.48
2022-09-12T08:44:21.737Z,39.07
2022-09-12T08:47:26.646Z,38.89
2022-09-12T08:50:08.763Z,40.57
2022-09-12T08:52:51.851Z,40.94
2022-09-12T08:55:55.423Z,41.24
2022-09-12T08:58:27.907Z,41.18
2022-09-12T09:01:19.052Z,41.91
2022-09-12T09:03:57.109Z,42.38
2022-09-12T09:06:31.798Z,40.33
2022-09-12T09:09:22.829Z,40.22
2022-09-12T09:12:19.638Z,42.52
2022-09-12T09:15:10.235Z,42.87
2022-09-12T09:17:48.109Z,43.98
2022-09-12T09:20:29.610Z,42.11
2022-09-12T09:23:05.021Z,43.73
2022-09-12T09:25:53.696Z,45.18
2022-09-12T09:28:22.615Z,44.20
2022-09-12T09:30:49.954Z,42.67
2022-09-12T09:33:26.294Z,41.61
2022-09-12T09:36:17.105Z,41.80
2022-09-12T09:39:08.982Z,42.34
2022-09-12T09:42:13.292Z,44.95
2022-09-12T09:44:39.978Z,46.05
2022-09-12T09:47:13.149Z,45.44
2022-09-12T09:49:39.765Z,46.11
2022-09-12T09:52:15.405Z,46.76
2022-09-12T09:54:50.162Z,44.36
2022-09-12T09:57:35.071Z,43.10
2022-09-12T10:00:27.095Z,43.56
2022-09-12T10:03:08.192Z,45.71
2022-09-12T10:05:46.944Z,46.59
2022-09-12T10:08:28.662Z,48.11
2022-09-12T10:10:58.269Z,44.72
2022-09-12T10:13:35.086Z,42.99
2022-09-12T10:18:52.811Z,42.62
2022-09-12T10:21:32.292Z,45.23
2022-09-12T10:24:23.125Z,46.43
2022-09-12T10:27:05.770Z,45.80
2022-09-12T10:29:36.096Z,44.04
2022-09-12T10:32:06.657Z,44.03
2022-09-12T10:34:44.993Z,43.78
2022-09-12T10:37:23.274Z,44.07
2022-09-12T10:39:53.942Z,44.27
2022-09-12T10:42:41.536Z,44.12
2022-09-12T10:45:32.727Z,45.04
2022-09-12T10:48:06.850Z,42.19
2022-09-12T10:50:42.311Z,35.03
2022-09-12T10:53:20.367Z,31.66
2022-09-12T10:56:19.310Z,30.79
2022-09-12T10:58:54.944Z,29.14
2022-09-12T11:01:41.948Z,28.04
2022-09-12T11:04:30.220Z,27.32
2022-09-12T11:07:39.457Z,27.40
2022-09-12T11:10:41.456Z,27.42
2022-09-12T11:13:59.186Z,27.33
2022-09-12T11:17:02.960Z,26.68
2022-09-12T11:20:04.024Z,26.94
2022-09-12T11:23:18.686Z,26.56
2022-09-12T11:26:18.993Z,26.52
2022-09-12T11:29:35.559Z,26.89
2022-09-12T11:32:37.061Z,27.14
2022-09-12T11:35:27.433Z,27.40
2022-09-12T11:38:53.617Z,27.03
2022-09-12T11:41:48.303Z,26.94
2022-09-12T11:44:40.255Z,26.61
2022-09-12T11:47:29.621Z,26.91
2022-09-12T11:50:26.748Z,26.66
2022-09-12T11:53:22.743Z,26.61
2022-09-12T11:56:17.696Z,26.69
2022-09-12T11:59:17.667Z,26.80
2022-09-12T12:02:12.640Z,26.82
2022-09-12T12:05:15.968Z,26.47
2022-09-12T12:08:06.293Z,26.39
2022-09-12T12:11:01.072Z,26.52
2022-09-12T12:13:59.058Z,25.82
2022-09-12T12:16:49.513Z,26.31
2022-09-12T12:19:37.949Z,26.49
2022-09-12T12:22:25.832Z,26.25
2022-09-12T12:25:12.673Z,26.23
2022-09-12T12:28:02.202Z,26.35
2022-09-12T12:30:57.456Z,26.47
2022-09-12T12:33:44.269Z,26.84
2022-09-12T12:36:35.548Z,27.05
2022-09-12T12:39:33.895Z,26.72
2022-09-12T12:42:35.663Z,26.98
2022-09-12T12:45:22.431Z,27.06
2022-09-12T12:48:17.106Z,27.18
2022-09-12T12:51:27.811Z,27.20
2022-09-12T12:54:26.015Z,27.63
2022-09-12T12:57:12.743Z,27.35
2022-09-12T13:00:08.683Z,27.35
2022-09-12T13:03:06.881Z,27.00
2022-09-12T13:06:05.395Z,27.27
2022-09-12T13:09:04.686Z,27.28
2022-09-12T13:12:04.013Z,27.19
2022-09-12T13:14:51.418Z,26.99
2022-09-12T13:17:42.183Z,26.69
2022-09-12T13:20:33.851Z,26.41
2022-09-12T13:23:30.119Z,26.82
2022-09-12T13:26:32.615Z,27.09
2022-09-12T13:29:24.687Z,27.12
2022-09-12T13:32:17.958Z,26.59
2022-09-12T13:35:19.545Z,26.89
2022-09-12T13:38:18.548Z,27.20
2022-09-12T13:41:23.847Z,27.38
2022-09-12T13:44:15.479Z,27.49
2022-09-12T13:47:03.500Z,27.25
2022-09-12T13:49:52.580Z,27.13
2022-09-12T13:52:45.745Z,27.35
2022-09-12T13:55:39.537Z,26.96
2022-09-12T13:58:35.380Z,26.66
2022-09-12T14:01:24.022Z,27.02
2022-09-12T14:04:41.455Z,27.09
2022-09-12T14:07:28.398Z,27.19
2022-09-12T14:10:21.608Z,27.09
2022-09-12T14:13:17.824Z,26.71
2022-09-12T14:16:09.827Z,26.80
2022-09-12T14:18:57.427Z,26.70
2022-09-12T14:21:44.521Z,26.79
2022-09-12T14:24:33.459Z,26.96
2022-09-12T14:27:38.200Z,26.88
2022-09-12T14:30:31.854Z,26.46
2022-09-12T14:33:20.878Z,26.45
2022-09-12T14:36:18.155Z,26.59
2022-09-12T14:39:09.707Z,26.56
2022-09-12T14:42:19.826Z,26.51
2022-09-12T14:45:17.135Z,26.63
2022-09-12T14:48:06.008Z,26.45
2022-09-12T14:50:55.911Z,26.18
2022-09-12T14:53:48.886Z,26.06
2022-09-12T14:56:57.986Z,25.79
2022-09-12T14:59:44.845Z,25.35
2022-09-12T15:02:31.874Z,25.18
2022-09-12T15:05:10.629Z,25.19
2022-09-12T15:07:48.062Z,24.94
2022-09-12T15:10:36.862Z,24.49
2022-09-12T15:13:09.585Z,24.49
2022-09-12T15:15:40.663Z,24.54
2022-09-12T15:18:09.598Z,24.45
2022-09-12T15:20:38.853Z,24.60
2022-09-12T15:23:13.133Z,24.94
2022-09-12T15:25:41.693Z,25.08
2022-09-12T15:28:20.781Z,25.29
2022-09-12T15:30:54.750Z,25.51
2022-09-12T15:33:24.083Z,25.26
2022-09-12T15:35:55.294Z,25.39
2022-09-12T15:38:26.563Z,25.36
2022-09-12T15:40:58.086Z,25.57
2022-09-12T15:43:26.860Z,25.41
2022-09-12T15:45:59.219Z,25.30
2022-09-12T15:48:25.726Z,25.01
2022-09-12T15:50:55.707Z,24.79
2022-09-12T15:53:22.154Z,24.34
2022-09-12T15:55:48.643Z,24.31
2022-09-12T15:58:19.419Z,24.42
2022-09-12T16:00:45.917Z,23.96
2022-09-12T16:03:23.550Z,23.57
2022-09-12T16:05:55.103Z,23.64
2022-09-12T16:08:24.252Z,23.71
2022-09-12T16:10:57.034Z,23.25
2022-09-12T16:13:24.329Z,23.10
2022-09-12T16:15:59.837Z,23.10
2022-09-12T16:18:27.256Z,22.91
2022-09-12T16:20:57.100Z,22.86
2022-09-12T16:23:24.200Z,22.86
2022-09-12T16:26:05.552Z,22.85
2022-09-12T16:28:33.300Z,22.36
2022-09-12T16:31:02.101Z,22.57
2022-09-12T16:33:31.939Z,22.42
2022-09-12T16:36:10.283Z,22.25
2022-09-12T16:38:44.477Z,22.27
2022-09-12T16:41:14.539Z,22.36
2022-09-12T16:43:41.096Z,22.28
2022-09-12T16:46:10.067Z,22.20
2022-09-12T16:48:37.925Z,22.15
2022-09-12T16:51:07.244Z,22.02
2022-09-12T16:53:35.211Z,22.01
2022-09-12T16:56:01.802Z,21.94
2022-09-12T16:58:31.508Z,21.99
2022-09-12T17:01:04.132Z,21.99
2022-09-12T17:03:31.469Z,21.89
2022-09-12T17:06:18.316Z,21.86
2022-09-12T17:08:51.650Z,21.72
2022-09-12T17:11:23.872Z,21.71
2022-09-12T17:14:06.071Z,21.67
2022-09-12T17:16:36.201Z,21.71
2022-09-12T17:19:03.570Z,21.46
2022-09-12T17:21:30.159Z,21.51
2022-09-12T17:23:56.758Z,21.45
2022-09-12T17:26:23.218Z,21.38
2022-09-12T17:28:51.982Z,21.29
2022-09-12T17:31:23.455Z,21.13
2022-09-12T17:33:50.006Z,21.12
2022-09-12T17:36:18.026Z,21.04
2022-09-12T17:38:46.000Z,20.94
2022-09-12T17:41:17.705Z,20.92
2022-09-12T17:43:54.234Z,20.84
2022-09-12T17:46:22.093Z,20.71
2022-09-12T17:48:56.321Z,20.73
2022-09-12T17:51:26.562Z,20.67
2022-09-12T17:54:05.451Z,20.66
2022-09-12T17:56:37.010Z,20.53
2022-09-12T17:59:07.337Z,20.52
2022-09-12T18:01:52.755Z,20.48
2022-09-12T18:04:20.032Z,20.38
2022-09-12T18:06:50.795Z,20.39
2022-09-12T18:09:19.455Z,20.30
2022-09-12T18:11:49.043Z,20.27
2022-09-12T18:14:18.501Z,20.19
2022-09-12T18:16:45.749Z,20.18
2022-09-12T18:19:12.534Z,20.13
2022-09-12T18:21:38.987Z,20.10
2022-09-12T18:24:06.112Z,20.01
2022-09-12T18:26:32.986Z,19.97
2022-09-12T18:28:59.544Z,19.93
2022-09-12T18:31:32.540Z,19.90
2022-09-12T18:34:02.448Z,19.84
2022-09-12T18:36:29.689Z,19.70
2022-09-12T18:39:02.131Z,19.69
2022-09-12T18:41:30.886Z,19.69
2022-09-12T18:43:59.640Z,19.63
2022-09-12T18:46:30.673Z,19.48
2022-09-12T18:48:57.939Z,19.49
2022-09-12T18:51:34.858Z,19.47
2022-09-12T18:54:12.461Z,19.39
2022-09-12T18:56:45.481Z,19.27
2022-09-12T18:59:17.736Z,19.20
2022-09-12T19:01:47.158Z,19.19
2022-09-12T19:04:19.333Z,19.22
2022-09-12T19:06:48.192Z,19.08
2022-09-12T19:09:20.532Z,18.97
2022-09-12T19:11:49.977Z,19.03
2022-09-12T19:14:26.035Z,18.95
2022-09-12T19:16:53.371Z,18.85
2022-09-12T19:19:20.921Z,18.82
2022-09-12T19:21:47.510Z,18.80
2022-09-12T19:24:14.658Z,18.79
2022-09-12T19:26:43.527Z,18.59
2022-09-12T19:29:14.620Z,18.56
2022-09-12T19:31:41.145Z,18.63
2022-09-12T19:34:07.732Z,18.42
2022-09-12T19:36:46.346Z,18.45
2022-09-12T19:39:14.571Z,18.52
2022-09-12T19:41:43.494Z,18.50
2022-09-12T19:44:09.986Z,18.36
2022-09-12T19:46:38.984Z,18.32
2022-09-12T19:49:09.192Z,18.38
2022-09-12T19:51:37.951Z,18.30
2022-09-12T19:54:04.465Z,18.21
2022-09-12T19:56:33.415Z,18.14
2022-09-12T19:59:00.098Z,18.15
2022-09-12T20:01:29.379Z,18.14
2022-09-12T20:03:57.696Z,18.07
2022-09-12T20:06:24.996Z,18.11
2022-09-12T20:08:54.148Z,18.02
2022-09-12T20:11:26.225Z,17.99
2022-09-12T20:13:53.099Z,17.96
2022-09-12T20:16:24.235Z,17.95
2022-09-12T20:18:59.384Z,17.91
2022-09-12T20:21:31.440Z,17.93
2022-09-12T20:24:10.129Z,17.87
2022-09-12T20:26:37.274Z,17.85
2022-09-12T20:29:05.738Z,17.66
2022-09-12T20:31:33.547Z,17.66
2022-09-12T20:34:00.319Z,17.61
2022-09-12T20:36:27.021Z,17.61
2022-09-12T20:39:01.398Z,17.55
2022-09-12T20:41:32.846Z,17.55
2022-09-12T20:43:59.397Z,17.41
2022-09-12T20:46:31.406Z,17.42
2022-09-12T20:49:00.333Z,17.48
2022-09-12T20:51:27.226Z,17.32
2022-09-12T20:53:54.814Z,17.39
2022-09-12T20:56:24.369Z,17.44
2022-09-12T20:58:51.054Z,17.31
2022-09-12T21:01:17.585Z,17.28
2022-09-12T21:03:44.866Z,17.27
2022-09-12T21:06:14.668Z,17.25
2022-09-12T21:08:41.219Z,17.12
2022-09-12T21:11:10.256Z,17.07
2022-09-12T21:13:39.525Z,17.08
2022-09-12T21:16:13.578Z,17.13
2022-09-12T21:18:43.000Z,16.98
2022-09-12T21:21:11.481Z,16.99
2022-09-12T21:23:40.396Z,16.93
2022-09-12T21:26:07.560Z,16.82
2022-09-12T21:28:34.445Z,16.58
2022-09-12T21:31:01.181Z,16.75
2022-09-12T21:33:28.062Z,16.54
2022-09-12T21:35:55.010Z,16.51
2022-09-12T21:38:23.870Z,16.53
2022-09-12T21:40:50.314Z,16.57
2022-09-12T21:43:16.757Z,16.41
2022-09-12T21:45:45.292Z,16.40
2022-09-12T21:48:16.305Z,16.44
2022-09-12T21:50:42.787Z,16.55
2022-09-12T21:53:11.758Z,16.54
2022-09-12T21:55:43.125Z,16.52
2022-09-12T21:58:10.532Z,16.45
2022-09-12T22:00:41.311Z,16.46
2022-09-12T22:03:10.315Z,16.49
2022-09-12T22:05:40.216Z,16.54
2022-09-12T22:08:11.553Z,16.48
2022-09-12T22:10:41.665Z,16.51
2022-09-12T22:13:11.153Z,16.41
2022-09-12T22:15:40.669Z,16.51
2022-09-12T22:18:10.648Z,16.60
2022-09-12T22:20:39.735Z,16.57
2022-09-12T22:23:31.019Z,16.45
2022-09-12T22:25:58.889Z,16.25
2022-09-12T22:28:25.486Z,16.29
2022-09-12T22:30:54.156Z,16.38
2022-09-12T22:33:21.052Z,16.37
2022-09-12T22:35:48.279Z,16.45
2022-09-12T22:38:14.709Z,16.23
2022-09-12T22:40:43.883Z,16.32
2022-09-12T22:43:10.714Z,16.28
2022-09-12T22:45:40.646Z,16.20
2022-09-12T22:48:09.569Z,16.24
2022-09-12T22:50:38.391Z,16.24
2022-09-12T22:53:07.134Z,16.17
2022-09-12T22:55:33.605Z,16.14
2022-09-12T22:58:00.125Z,16.05
2022-09-12T23:00:29.697Z,15.95
2022-09-12T23:02:58.802Z,16.01
2022-09-12T23:05:25.281Z,16.00
2022-09-12T23:07:55.513Z,15.98
2022-09-12T23:10:27.086Z,15.92
2022-09-12T23:12:54.857Z,15.94
2022-09-12T23:15:21.485Z,15.85
2022-09-12T23:17:48.333Z,15.90
2022-09-12T23:20:14.784Z,15.90
2022-09-12T23:22:45.692Z,15.80
2022-09-12T23:25:12.117Z,15.77
2022-09-12T23:27:40.011Z,15.72
2022-09-12T23:30:09.104Z,15.79
2022-09-12T23:32:36.593Z,15.66
2022-09-12T23:35:03.509Z,15.68
2022-09-12T23:37:30.132Z,15.77
2022-09-12T23:39:58.680Z,15.71
2022-09-12T23:42:27.496Z,15.69
2022-09-12T23:44:53.982Z,15.70
2022-09-12T23:47:20.420Z,15.67
2022-09-12T23:49:49.262Z,15.58
2022-09-12T23:52:15.713Z,15.52
2022-09-12T23:54:44.638Z,15.51
2022-09-12T23:57:15.470Z,15.55
2022-09-12T23:59:44.231Z,15.58
